Time;durP1;ratioP1;P1;durP2;ratioP2;P2;SDS_P1;SDS_P2;PMS_P1;PMS_P2;Temp;Humidity;BMP_temperature;BMP_pressure;BME280_temperature;BME280_humidity;BME280_pressure;Samples;Min_cycle;Max_cycle;Signal;HPM_P1;HPM_P2
2022/06/07 00:02:30;;;;;;;6.30;2.85;;;14.20;97.20;;;;;;5045008;28;20021;-71
2022/06/07 00:04:56;;;;;;;5.33;2.80;;;14.10;96.90;;;;;;5054755;28;20053;-70
2022/06/07 00:07:23;;;;;;;6.85;2.78;;;13.90;97.20;;;;;;5054816;28;20099;-71
2022/06/07 00:09:50;;;;;;;5.55;2.65;;;13.80;96.40;;;;;;5056920;28;20418;-70
2022/06/07 00:12:17;;;;;;;4.38;2.65;;;13.70;96.10;;;;;;5052886;28;20037;-70
2022/06/07 00:14:45;;;;;;;5.10;2.70;;;13.60;97.00;;;;;;5056806;28;20032;-70
2022/06/07 00:17:12;;;;;;;5.25;2.47;;;13.60;96.80;;;;;;5056462;28;20025;-69
2022/06/07 00:19:39;;;;;;;5.05;2.85;;;13.50;96.60;;;;;;5053887;28;20402;-70
2022/06/07 00:22:05;;;;;;;5.93;2.67;;;13.50;94.60;;;;;;5046632;28;20026;-70
2022/06/07 00:24:31;;;;;;;6.65;2.92;;;13.50;95.30;;;;;;5056428;28;20052;-70
2022/06/07 00:26:57;;;;;;;5.28;3.28;;;13.50;94.30;;;;;;5053786;28;20084;-70
2022/06/07 00:29:24;;;;;;;4.82;2.47;;;13.50;93.80;;;;;;5056095;28;20422;-71
2022/06/07 00:31:50;;;;;;;8.32;3.10;;;13.40;94.00;;;;;;5054156;28;20327;-72
2022/06/07 00:34:16;;;;;;;5.18;3.00;;;13.30;94.30;;;;;;5058300;28;20108;-72
2022/06/07 00:36:43;;;;;;;5.35;2.95;;;13.30;93.70;;;;;;5054539;28;20078;-71
2022/06/07 00:39:08;;;;;;;5.38;2.80;;;13.20;93.40;;;;;;5058703;28;20040;-72
2022/06/07 00:41:35;;;;;;;5.20;3.05;;;13.20;93.70;;;;;;5055514;28;20040;-72
2022/06/07 00:44:28;;;;;;;4.60;2.70;;;13.20;92.60;;;;;;5055726;28;20021;-72
2022/06/07 00:47:03;;;;;;;4.75;2.80;;;13.20;92.00;;;;;;5054648;28;20025;-71
2022/06/07 00:49:33;;;;;;;6.70;3.63;;;13.10;92.00;;;;;;5056856;28;20029;-71
2022/06/07 00:51:58;;;;;;;8.15;3.58;;;13.10;91.50;;;;;;5055344;28;20033;-71
2022/06/07 00:54:27;;;;;;;5.60;2.63;;;13.10;91.50;;;;;;5057216;28;20182;-71
2022/06/07 00:56:53;;;;;;;4.25;2.60;;;12.90;91.90;;;;;;5055116;28;20067;-71
2022/06/07 00:59:19;;;;;;;6.03;2.78;;;12.80;91.80;;;;;;5052466;28;20021;-71
2022/06/07 01:01:45;;;;;;;5.82;2.83;;;12.80;91.30;;;;;;5053965;28;20021;-71
2022/06/07 01:04:11;;;;;;;4.82;2.78;;;12.80;90.40;;;;;;5057187;28;20029;-71
2022/06/07 01:12:05;;;;;;;5.78;2.60;;;12.80;89.50;;;;;;5056451;28;20063;-71
2022/06/07 01:14:31;;;;;;;4.88;2.78;;;12.80;89.40;;;;;;5054436;28;20379;-71
2022/06/07 01:16:58;;;;;;;6.30;3.00;;;12.80;89.90;;;;;;5054167;28;20108;-70
2022/06/07 01:19:24;;;;;;;4.93;2.78;;;12.80;89.90;;;;;;5055935;28;20037;-70
2022/06/07 01:21:50;;;;;;;5.22;3.20;;;12.80;90.50;;;;;;5055140;28;20425;-71
2022/06/07 01:24:19;;;;;;;9.32;4.68;;;12.80;90.10;;;;;;5055060;28;20045;-71
2022/06/07 01:26:45;;;;;;;6.13;3.42;;;12.80;88.70;;;;;;5054483;28;20104;-71
2022/06/07 01:29:13;;;;;;;7.28;4.07;;;12.80;88.40;;;;;;5055022;28;20104;-70
2022/06/07 01:31:39;;;;;;;8.27;4.00;;;12.80;87.40;;;;;;5052557;28;20078;-70
2022/06/07 01:34:05;;;;;;;8.02;3.97;;;12.90;86.50;;;;;;5056335;28;20112;-70
2022/06/07 01:36:31;;;;;;;11.60;3.97;;;12.90;86.80;;;;;;5055851;28;20033;-70
2022/06/07 01:41:54;;;;;;;6.93;3.40;;;12.80;85.70;;;;;;5054368;28;20056;-71
2022/06/07 01:44:49;;;;;;;6.75;3.05;;;12.80;84.70;;;;;;5055759;28;20092;-71
2022/06/07 01:47:22;;;;;;;4.70;2.80;;;12.80;85.10;;;;;;5054413;28;20065;-71
2022/06/07 01:49:48;;;;;;;9.75;2.95;;;12.80;85.10;;;;;;5054914;28;20029;-71
2022/06/07 01:52:16;;;;;;;5.97;3.38;;;12.80;85.90;;;;;;5053986;28;20302;-70
2022/06/07 01:54:43;;;;;;;7.03;3.80;;;12.80;85.60;;;;;;5052531;28;20044;-70
2022/06/07 01:57:10;;;;;;;6.45;4.00;;;12.80;84.90;;;;;;5052132;28;20061;-71
2022/06/07 01:59:38;;;;;;;6.35;3.97;;;12.90;84.70;;;;;;5053643;28;20021;-70
2022/06/07 02:02:05;;;;;;;6.00;3.83;;;12.80;85.00;;;;;;5056178;28;20048;-71
2022/06/07 02:04:30;;;;;;;6.07;3.35;;;12.80;84.00;;;;;;5054247;28;20405;-71
2022/06/07 02:06:56;;;;;;;5.10;3.30;;;12.80;84.20;;;;;;5054641;28;20039;-71
2022/06/07 02:09:22;;;;;;;7.32;4.03;;;12.80;84.30;;;;;;5055567;28;20163;-71
2022/06/07 02:11:47;;;;;;;6.50;3.42;;;12.80;84.10;;;;;;5053827;28;20064;-71
2022/06/07 02:14:13;;;;;;;4.93;3.13;;;12.80;84.80;;;;;;5053694;28;20037;-71
2022/06/07 02:16:40;;;;;;;7.15;2.88;;;12.80;84.50;;;;;;5054629;28;20021;-71
2022/06/07 02:19:06;;;;;;;4.20;2.30;;;12.70;85.00;;;;;;5056373;28;20096;-70
2022/06/07 02:21:32;;;;;;;4.90;3.00;;;12.70;84.30;;;;;;5047606;28;20321;-70
2022/06/07 02:23:58;;;;;;;6.50;2.90;;;12.70;85.40;;;;;;5051582;28;20475;-70
2022/06/07 02:26:28;;;;;;;5.50;3.35;;;12.70;85.20;;;;;;5049026;28;20033;-71
2022/06/07 02:29:01;;;;;;;7.05;2.88;;;12.60;85.60;;;;;;5052524;28;20100;-71
2022/06/07 02:31:29;;;;;;;7.38;3.55;;;12.60;85.20;;;;;;5055830;28;20079;-71
2022/06/07 02:33:57;;;;;;;6.22;3.45;;;12.60;84.90;;;;;;5054029;28;20027;-71
2022/06/07 02:36:23;;;;;;;4.60;2.67;;;12.60;84.50;;;;;;5047462;28;20029;-71
2022/06/07 02:38:49;;;;;;;4.45;2.55;;;12.70;84.20;;;;;;5054809;28;20056;-71
2022/06/07 02:41:18;;;;;;;7.55;3.13;;;12.70;84.40;;;;;;5056186;28;20071;-71
2022/06/07 02:43:45;;;;;;;5.95;3.30;;;12.60;84.90;;;;;;5054080;28;20025;-70
2022/06/07 02:46:11;;;;;;;6.00;3.50;;;12.60;84.90;;;;;;5053319;28;20025;-71
2022/06/07 02:48:37;;;;;;;5.68;3.15;;;12.60;84.20;;;;;;5051671;28;20071;-71
2022/06/07 02:51:03;;;;;;;8.32;3.42;;;12.60;84.20;;;;;;5054504;28;20025;-70
2022/06/07 02:53:29;;;;;;;8.85;3.65;;;12.60;84.00;;;;;;5053847;28;20036;-70
2022/06/07 02:55:54;;;;;;;6.65;4.13;;;12.60;83.90;;;;;;5053707;28;20115;-71
2022/06/07 02:58:23;;;;;;;4.95;3.47;;;12.60;83.80;;;;;;5052629;28;20051;-70
2022/06/07 03:00:48;;;;;;;6.75;3.58;;;12.60;83.50;;;;;;5054226;28;20096;-71
2022/06/07 03:03:14;;;;;;;6.28;3.35;;;12.60;83.50;;;;;;5051789;28;20412;-71
2022/06/07 03:05:39;;;;;;;6.13;3.80;;;12.60;83.60;;;;;;5051499;28;20029;-71
2022/06/07 03:08:05;;;;;;;4.78;3.17;;;12.60;83.50;;;;;;5051042;28;20107;-70
2022/06/07 03:10:31;;;;;;;8.40;4.18;;;12.60;83.70;;;;;;5054352;28;20025;-70
2022/06/07 03:12:56;;;;;;;8.27;3.90;;;12.60;83.70;;;;;;5054485;28;20417;-70
2022/06/07 03:15:22;;;;;;;5.45;3.38;;;12.50;83.60;;;;;;5046060;28;20040;-70
2022/06/07 03:17:48;;;;;;;5.10;3.55;;;12.60;83.10;;;;;;5054440;28;20036;-71
2022/06/07 03:20:14;;;;;;;5.82;2.95;;;12.60;82.90;;;;;;5055741;28;20021;-71
2022/06/07 03:22:41;;;;;;;5.85;3.88;;;12.60;82.60;;;;;;5053763;28;20040;-71
2022/06/07 03:25:07;;;;;;;9.23;4.75;;;12.60;83.00;;;;;;5053072;28;20029;-71
2022/06/07 03:27:35;;;;;;;6.43;4.15;;;12.60;82.50;;;;;;5054159;28;20017;-71
2022/06/07 03:30:02;;;;;;;6.47;3.58;;;12.60;82.30;;;;;;5052613;28;20047;-71
2022/06/07 03:32:28;;;;;;;7.90;4.05;;;12.60;82.20;;;;;;5051396;28;20090;-71
2022/06/07 03:34:54;;;;;;;9.77;3.47;;;12.60;82.50;;;;;;5054312;28;20100;-71
2022/06/07 03:37:20;;;;;;;8.93;3.60;;;12.60;82.30;;;;;;5054038;28;20070;-71
2022/06/07 03:39:45;;;;;;;7.93;4.28;;;12.60;82.40;;;;;;5049003;28;20341;-71
2022/06/07 03:42:12;;;;;;;5.93;3.90;;;12.60;82.50;;;;;;5055023;28;20044;-71
2022/06/07 03:44:38;;;;;;;8.20;3.90;;;12.60;81.90;;;;;;5052430;28;20041;-71
2022/06/07 03:47:04;;;;;;;5.43;3.42;;;12.60;81.90;;;;;;5051568;28;20033;-70
2022/06/07 03:49:31;;;;;;;7.13;3.85;;;12.60;82.30;;;;;;5051771;28;20788;-71
2022/06/07 03:51:57;;;;;;;5.95;3.45;;;12.70;81.70;;;;;;5055303;28;20029;-71
2022/06/07 03:54:23;;;;;;;9.10;4.30;;;12.70;82.00;;;;;;5053933;28;20079;-71
2022/06/07 03:56:49;;;;;;;6.95;3.55;;;12.70;82.40;;;;;;5052539;28;20029;-70
2022/06/07 03:59:15;;;;;;;5.68;3.42;;;12.70;82.00;;;;;;5051599;28;20104;-71
2022/06/07 04:01:41;;;;;;;5.78;2.85;;;12.80;81.70;;;;;;5050252;28;20143;-71
2022/06/07 04:04:09;;;;;;;8.23;3.47;;;12.70;82.40;;;;;;5052484;28;20025;-71
2022/06/07 04:06:41;;;;;;;5.18;3.15;;;12.70;82.40;;;;;;5053935;28;20468;-70
2022/06/07 04:09:07;;;;;;;6.38;3.33;;;12.70;82.50;;;;;;5054160;28;20460;-70
2022/06/07 04:11:33;;;;;;;6.38;3.92;;;12.80;82.30;;;;;;5048502;28;20052;-70
2022/06/07 04:13:59;;;;;;;6.85;3.92;;;12.80;82.90;;;;;;5048343;28;20060;-71
2022/06/07 04:16:28;;;;;;;6.22;3.40;;;12.70;83.30;;;;;;5040465;28;20056;-70
2022/06/07 04:18:54;;;;;;;6.85;3.40;;;12.70;82.90;;;;;;5050041;28;20025;-70
2022/06/07 04:21:22;;;;;;;5.35;3.08;;;12.70;82.60;;;;;;5053685;28;20021;-71
2022/06/07 04:23:49;;;;;;;5.47;3.17;;;12.80;82.90;;;;;;5054261;28;20025;-70
2022/06/07 04:26:22;;;;;;;5.03;3.17;;;12.80;82.90;;;;;;5047575;28;20061;-69
2022/06/07 04:28:48;;;;;;;7.07;3.63;;;12.80;83.10;;;;;;5050053;28;20091;-70
2022/06/07 04:31:20;;;;;;;6.22;3.55;;;12.90;83.40;;;;;;5043167;28;20067;-70
2022/06/07 04:33:46;;;;;;;5.75;3.47;;;12.80;84.40;;;;;;5051858;28;20036;-70
2022/06/07 04:36:14;;;;;;;5.68;3.15;;;12.80;84.20;;;;;;5056188;28;20028;-71
2022/06/07 04:38:41;;;;;;;5.25;3.60;;;12.80;83.60;;;;;;5053093;28;20026;-71
2022/06/07 04:41:12;;;;;;;7.55;4.18;;;12.80;84.70;;;;;;5050041;28;20052;-71
2022/06/07 04:43:38;;;;;;;5.38;3.58;;;12.80;84.40;;;;;;5055110;28;20029;-71
2022/06/07 04:46:10;;;;;;;8.65;3.90;;;12.80;84.20;;;;;;5048547;28;20317;-70
2022/06/07 04:48:38;;;;;;;6.57;3.22;;;12.90;84.70;;;;;;5051346;28;20017;-71
2022/06/07 04:51:27;;;;;;;6.80;3.78;;;12.90;84.00;;;;;;5050319;28;20049;-70
2022/06/07 04:53:53;;;;;;;6.63;3.55;;;13.00;84.60;;;;;;5048139;28;20071;-70
2022/06/07 04:56:21;;;;;;;6.68;3.60;;;13.10;85.00;;;;;;5056337;28;20037;-70
2022/06/07 04:58:48;;;;;;;6.82;3.47;;;13.10;85.50;;;;;;5055432;28;20070;-70
2022/06/07 05:01:23;;;;;;;4.80;3.30;;;13.10;86.50;;;;;;5054938;28;20031;-70
2022/06/07 05:03:50;;;;;;;4.75;2.70;;;13.20;86.50;;;;;;5057182;28;20063;-70
2022/06/07 05:06:26;;;;;;;4.63;2.75;;;13.30;86.70;;;;;;5052141;28;20373;-71
2022/06/07 05:08:55;;;;;;;5.88;2.60;;;13.40;86.90;;;;;;5056253;28;20029;-71
2022/06/07 05:11:21;;;;;;;4.75;2.70;;;13.60;87.80;;;;;;5055939;28;20044;-71
2022/06/07 05:13:50;;;;;;;5.43;2.83;;;13.60;88.60;;;;;;5053734;28;20036;-70
2022/06/07 05:16:15;;;;;;;4.13;2.38;;;13.50;89.10;;;;;;5053179;28;20043;-70
2022/06/07 05:18:41;;;;;;;4.68;2.58;;;13.50;89.50;;;;;;5057146;28;20034;-71
2022/06/07 05:21:09;;;;;;;4.90;2.88;;;13.60;89.40;;;;;;5054707;28;20048;-71
2022/06/07 05:23:35;;;;;;;5.28;3.03;;;13.70;89.80;;;;;;5055804;28;20025;-71
2022/06/07 05:26:37;;;;;;;6.55;2.80;;;13.70;90.70;;;;;;5054686;28;20029;-71
2022/06/07 05:29:04;;;;;;;4.22;2.63;;;13.90;89.90;;;;;;5042425;28;21806;-70
2022/06/07 05:31:30;;;;;;;4.60;2.45;;;14.00;91.30;;;;;;5041406;28;20448;-70
2022/06/07 05:33:56;;;;;;;4.65;2.67;;;14.10;91.60;;;;;;5055765;28;20108;-71
2022/06/07 05:36:21;;;;;;;4.10;2.30;;;14.30;92.70;;;;;;5046680;28;21566;-71
2022/06/07 05:38:48;;;;;;;3.90;2.20;;;14.30;94.10;;;;;;5054937;28;20032;-71
2022/06/07 05:41:25;;;;;;;3.40;2.00;;;14.20;95.30;;;;;;5055165;28;20456;-70
2022/06/07 05:43:52;;;;;;;6.50;2.35;;;14.20;95.30;;;;;;5045855;28;20029;-71
2022/06/07 05:46:17;;;;;;;4.72;2.20;;;14.20;95.40;;;;;;5037849;28;20993;-70
2022/06/07 05:48:43;;;;;;;5.28;2.25;;;14.20;95.20;;;;;;5054128;28;20056;-71
2022/06/07 05:51:09;;;;;;;4.38;2.35;;;14.20;95.50;;;;;;5056838;28;20305;-70
2022/06/07 05:53:35;;;;;;;4.15;2.22;;;14.20;95.50;;;;;;5056434;28;20025;-71
2022/06/07 05:56:13;;;;;;;4.25;2.30;;;14.40;95.60;;;;;;5057223;28;20376;-71
2022/06/07 05:58:39;;;;;;;3.58;2.08;;;14.50;96.10;;;;;;5055782;28;20036;-71
2022/06/07 06:01:07;;;;;;;4.05;2.20;;;14.50;95.50;;;;;;5056566;28;20017;-71
2022/06/07 06:03:33;;;;;;;3.67;2.17;;;14.80;95.80;;;;;;5055698;28;20025;-71
2022/06/07 06:05:59;;;;;;;6.05;2.20;;;15.10;95.80;;;;;;5056244;28;20091;-71
2022/06/07 06:11:11;;;;;;;4.03;2.13;;;15.50;98.00;;;;;;5054205;28;20028;-70
2022/06/07 06:13:37;;;;;;;4.70;1.90;;;15.70;98.00;;;;;;5055048;28;20021;-71
2022/06/07 06:16:06;;;;;;;4.67;1.60;;;15.80;98.00;;;;;;5056371;28;20475;-71
2022/06/07 06:18:33;;;;;;;6.53;2.25;;;15.80;98.00;;;;;;5056247;28;20029;-71
2022/06/07 06:20:59;;;;;;;4.07;1.98;;;15.80;98.00;;;;;;5055370;28;20021;-71
2022/06/07 06:23:24;;;;;;;4.22;1.98;;;15.70;98.00;;;;;;5056604;28;20108;-70
2022/06/07 06:25:51;;;;;;;4.35;2.20;;;15.70;97.90;;;;;;5054776;28;20040;-70
2022/06/07 06:28:16;;;;;;;5.85;2.42;;;15.90;98.00;;;;;;5054587;28;20025;-70
2022/06/07 06:30:44;;;;;;;4.88;2.10;;;15.90;97.80;;;;;;5054001;28;20550;-70
2022/06/07 06:33:12;;;;;;;5.38;2.03;;;16.10;97.90;;;;;;5056713;28;20099;-71
2022/06/07 06:35:38;;;;;;;7.93;2.53;;;16.20;97.80;;;;;;5055448;28;20037;-71
2022/06/07 06:38:04;;;;;;;7.30;2.35;;;16.20;97.60;;;;;;5053195;28;20024;-71
2022/06/07 06:40:30;;;;;;;4.65;2.47;;;16.00;98.00;;;;;;5054727;28;20489;-71
2022/06/07 06:42:55;;;;;;;6.50;2.35;;;15.90;98.00;;;;;;5055220;28;20414;-70
2022/06/07 06:45:21;;;;;;;8.50;2.75;;;16.00;97.90;;;;;;5054056;28;20024;-70
2022/06/07 06:47:47;;;;;;;4.85;2.40;;;16.20;97.90;;;;;;5055600;28;20032;-70
2022/06/07 06:50:13;;;;;;;4.38;2.03;;;16.40;97.80;;;;;;5051472;28;20029;-70
2022/06/07 06:52:40;;;;;;;3.97;2.42;;;16.50;97.70;;;;;;5055419;28;20024;-70
2022/06/07 06:55:06;;;;;;;7.28;2.63;;;16.70;97.50;;;;;;5050799;28;20033;-70
2022/06/07 06:57:32;;;;;;;3.80;2.20;;;16.70;97.60;;;;;;5055318;28;20365;-70
2022/06/07 06:59:58;;;;;;;5.38;2.03;;;16.60;97.60;;;;;;5054348;28;20040;-70
2022/06/07 07:02:23;;;;;;;4.32;2.10;;;16.40;97.30;;;;;;5055370;28;20410;-70
2022/06/07 07:04:49;;;;;;;4.68;2.10;;;16.20;97.40;;;;;;5055865;28;20033;-70
2022/06/07 07:07:14;;;;;;;5.95;2.15;;;16.20;97.40;;;;;;5054246;28;20032;-70
2022/06/07 07:09:40;;;;;;;4.72;2.20;;;16.50;97.80;;;;;;5054666;28;20031;-70
2022/06/07 07:12:07;;;;;;;3.92;2.20;;;16.50;97.00;;;;;;5054953;28;20436;-70
2022/06/07 07:14:33;;;;;;;4.88;2.28;;;16.60;96.90;;;;;;5052687;28;20029;-69
2022/06/07 07:16:58;;;;;;;3.25;1.90;;;16.80;96.40;;;;;;5052385;28;21581;-69
2022/06/07 07:19:24;;;;;;;5.88;1.95;;;17.10;96.60;;;;;;5053793;28;20074;-70
2022/06/07 07:21:51;;;;;;;4.22;2.20;;;17.50;95.70;;;;;;5053380;28;20017;-69
2022/06/07 07:24:20;;;;;;;5.85;2.25;;;17.60;95.30;;;;;;5053017;28;20432;-69
2022/06/07 07:26:46;;;;;;;3.72;2.05;;;17.60;94.40;;;;;;5055306;28;20310;-70
2022/06/07 07:29:14;;;;;;;4.78;2.13;;;17.30;95.20;;;;;;5054471;28;20094;-69
2022/06/07 07:31:41;;;;;;;4.15;2.00;;;16.90;95.40;;;;;;5038334;28;20410;-70
2022/06/07 07:34:09;;;;;;;5.35;1.95;;;16.90;95.60;;;;;;5050909;28;20100;-68
2022/06/07 07:36:38;;;;;;;4.03;1.67;;;17.00;95.50;;;;;;5050857;28;20120;-68
2022/06/07 07:39:04;;;;;;;4.00;1.98;;;17.80;94.00;;;;;;5048925;28;20037;-70
2022/06/07 07:41:33;;;;;;;3.97;1.48;;;19.10;91.70;;;;;;5053118;28;20116;-70
2022/06/07 07:44:01;;;;;;;3.95;1.77;;;20.40;86.60;;;;;;5050991;28;20110;-70
2022/06/07 07:46:29;;;;;;;3.20;1.40;;;21.20;85.30;;;;;;5053901;28;20554;-70
2022/06/07 07:48:56;;;;;;;12.77;1.50;;;20.70;83.00;;;;;;5054231;28;20025;-69
2022/06/07 07:51:42;;;;;;;5.40;1.60;;;20.40;83.90;;;;;;5053050;28;20082;-69
2022/06/07 07:54:10;;;;;;;6.07;1.88;;;20.60;84.80;;;;;;5052726;28;20469;-70
2022/06/07 07:56:37;;;;;;;4.40;1.73;;;20.10;85.70;;;;;;5054097;28;20032;-69
2022/06/07 07:59:05;;;;;;;10.80;1.80;;;19.40;86.90;;;;;;5053026;28;20040;-68
2022/06/07 08:01:32;;;;;;;9.85;2.03;;;18.90;88.50;;;;;;5055070;28;20028;-69
2022/06/07 08:04:00;;;;;;;17.00;2.03;;;19.30;88.40;;;;;;5055225;28;20024;-70
2022/06/07 08:06:29;;;;;;;3.28;1.60;;;19.50;85.80;;;;;;5053258;28;20029;-70
2022/06/07 08:08:59;;;;;;;6.78;1.80;;;19.20;87.30;;;;;;5054553;28;20032;-70
2022/06/07 08:11:28;;;;;;;3.92;1.40;;;18.60;88.40;;;;;;5057875;28;20032;-70
2022/06/07 08:13:55;;;;;;;6.55;2.05;;;18.30;88.70;;;;;;5056725;28;20051;-70
2022/06/07 08:16:21;;;;;;;5.75;2.20;;;17.90;90.80;;;;;;5057991;28;20491;-70
2022/06/07 08:18:50;;;;;;;6.10;1.98;;;17.50;92.40;;;;;;5057376;28;20055;-70
2022/06/07 08:21:22;;;;;;;3.72;1.67;;;17.40;93.10;;;;;;5055412;28;20322;-69
2022/06/07 08:23:49;;;;;;;3.22;1.48;;;17.60;92.60;;;;;;5057829;28;20025;-70
2022/06/07 08:26:16;;;;;;;5.25;1.60;;;17.90;92.90;;;;;;5056389;28;20401;-70
2022/06/07 08:28:42;;;;;;;3.30;1.50;;;18.60;90.50;;;;;;5056825;28;20025;-69
2022/06/07 08:31:12;;;;;;;4.10;1.40;;;20.50;85.10;;;;;;5058830;28;20086;-70
2022/06/07 08:39:08;;;;;;;2.83;1.30;;;21.40;78.30;;;;;;5038860;28;20021;-70
2022/06/07 08:41:35;;;;;;;3.67;0.98;;;20.70;80.60;;;;;;5043804;28;20041;-70
2022/06/07 08:44:15;;;;;;;2.88;1.20;;;20.60;79.50;;;;;;5055222;28;20044;-70
2022/06/07 08:46:41;;;;;;;2.90;1.23;;;20.70;78.90;;;;;;5057495;28;20044;-70
2022/06/07 08:49:11;;;;;;;2.75;1.20;;;20.80;78.00;;;;;;5058444;28;20013;-71
2022/06/07 08:51:50;;;;;;;3.50;1.27;;;20.70;78.90;;;;;;5057910;28;20025;-70
2022/06/07 08:54:24;;;;;;;2.10;1.20;;;20.20;79.90;;;;;;5057502;28;20102;-70
2022/06/07 08:56:51;;;;;;;3.40;1.20;;;20.20;81.00;;;;;;5056591;28;20051;-70
2022/06/07 08:59:19;;;;;;;2.50;1.20;;;20.30;80.70;;;;;;5054807;28;20041;-70
2022/06/07 09:02:23;;;;;;;2.92;1.30;;;20.70;81.00;;;;;;5057401;28;20036;-71
2022/06/07 09:04:49;;;;;;;4.97;1.10;;;22.50;76.10;;;;;;5056959;28;20048;-68
2022/06/07 09:07:19;;;;;;;3.17;1.40;;;23.60;71.90;;;;;;5045992;28;20029;-70
2022/06/07 09:12:54;;;;;;;1.65;0.77;;;23.50;69.50;;;;;;5055814;28;20040;-69
2022/06/07 09:15:20;;;;;;;2.15;0.90;;;23.30;69.60;;;;;;5051493;28;20061;-70
2022/06/07 09:17:53;;;;;;;2.63;1.10;;;23.40;70.10;;;;;;5058075;28;20156;-70
2022/06/07 09:20:29;;;;;;;2.00;0.77;;;24.70;68.40;;;;;;5057038;28;20063;-69
2022/06/07 09:23:16;;;;;;;2.33;0.90;;;25.10;68.50;;;;;;5054531;28;20298;-69
2022/06/07 09:25:48;;;;;;;3.20;0.90;;;24.90;67.60;;;;;;5056721;28;20456;-69
2022/06/07 09:28:19;;;;;;;3.10;0.70;;;24.80;64.10;;;;;;5055858;28;20043;-69
2022/06/07 09:30:48;;;;;;;1.88;0.73;;;25.10;64.90;;;;;;5056532;28;20048;-69
2022/06/07 09:33:24;;;;;;;1.95;0.85;;;26.00;63.50;;;;;;5056706;28;20029;-70
2022/06/07 09:35:52;;;;;;;2.88;1.00;;;25.40;64.40;;;;;;5056272;28;20421;-71
2022/06/07 09:38:47;;;;;;;2.65;1.00;;;24.00;66.40;;;;;;5057621;28;20032;-69
2022/06/07 09:44:29;;;;;;;2.75;1.05;;;21.70;71.60;;;;;;5055347;28;20032;-69
2022/06/07 09:47:16;;;;;;;3.17;1.00;;;21.90;71.80;;;;;;5056028;28;20029;-68
2022/06/07 09:49:42;;;;;;;2.28;0.90;;;23.50;69.00;;;;;;5056639;28;20040;-68
2022/06/07 09:52:11;;;;;;;1.70;0.70;;;24.10;67.40;;;;;;5055670;28;20036;-69
2022/06/07 09:54:41;;;;;;;2.08;0.88;;;23.20;68.40;;;;;;5036416;28;20026;-68
2022/06/07 09:57:21;;;;;;;3.13;1.08;;;22.30;70.50;;;;;;5046628;28;20021;-68
2022/06/07 10:00:21;;;;;;;2.72;0.90;;;21.50;74.30;;;;;;5048732;28;20018;-68
2022/06/07 10:03:03;;;;;;;2.80;1.05;;;21.20;74.80;;;;;;5049231;28;20493;-70
2022/06/07 10:05:40;;;;;;;2.75;1.05;;;21.30;75.40;;;;;;5040665;28;20358;-69
2022/06/07 10:08:29;;;;;;;3.15;1.10;;;21.90;74.10;;;;;;5053339;28;20032;-68
2022/06/07 10:11:21;;;;;;;1.95;0.82;;;22.40;73.20;;;;;;5051023;28;20037;-69
2022/06/07 10:14:12;;;;;;;2.17;0.90;;;23.20;69.80;;;;;;5054618;28;20040;-68
2022/06/07 10:17:01;;;;;;;2.50;1.08;;;22.60;70.20;;;;;;5045058;28;20173;-68
2022/06/07 10:19:52;;;;;;;2.42;0.90;;;22.60;71.60;;;;;;5052573;28;20025;-69
2022/06/07 10:22:45;;;;;;;1.83;0.95;;;22.80;70.90;;;;;;5051881;28;20417;-70
2022/06/07 10:25:20;;;;;;;1.45;0.80;;;23.50;69.20;;;;;;5054131;28;20059;-70
2022/06/07 10:28:05;;;;;;;2.55;0.90;;;23.50;67.40;;;;;;5054010;28;20310;-70
2022/06/07 10:30:42;;;;;;;2.22;0.95;;;23.00;69.50;;;;;;5053289;28;20326;-70
2022/06/07 10:33:31;;;;;;;1.65;1.00;;;23.10;70.50;;;;;;5053123;28;20070;-70
2022/06/07 10:36:18;;;;;;;1.77;0.82;;;23.10;69.60;;;;;;5053340;28;20459;-70
2022/06/07 10:39:06;;;;;;;2.72;0.80;;;22.20;70.50;;;;;;5051523;28;20029;-69
2022/06/07 10:41:56;;;;;;;2.97;1.02;;;21.50;71.20;;;;;;5051461;28;20448;-68
2022/06/07 10:44:44;;;;;;;5.28;2.30;;;21.20;72.30;;;;;;5054693;28;20036;-69
2022/06/07 10:47:18;;;;;;;2.35;1.10;;;21.30;74.10;;;;;;5054385;28;20029;-69
2022/06/07 10:50:06;;;;;;;3.38;1.42;;;21.40;73.00;;;;;;5051587;28;20036;-69
2022/06/07 10:52:45;;;;;;;4.30;1.15;;;21.80;74.20;;;;;;5054832;28;20025;-70
2022/06/07 10:55:19;;;;;;;2.95;1.20;;;22.00;71.20;;;;;;5050914;28;20031;-69
2022/06/07 10:58:10;;;;;;;1.80;0.80;;;22.80;72.00;;;;;;5054983;28;20024;-71
2022/06/07 11:00:49;;;;;;;2.65;1.20;;;22.80;69.20;;;;;;5054112;28;20037;-74
2022/06/07 11:03:39;;;;;;;3.75;1.30;;;23.00;69.30;;;;;;5053534;28;20017;-69
2022/06/07 11:09:22;;;;;;;2.00;0.90;;;23.00;69.70;;;;;;5054741;28;20427;-70
2022/06/07 11:11:54;;;;;;;2.88;1.00;;;23.40;69.80;;;;;;5054899;28;20025;-70
2022/06/07 11:14:41;;;;;;;3.80;1.45;;;23.70;70.20;;;;;;5052374;28;20060;-70
2022/06/07 11:17:27;;;;;;;3.50;1.23;;;24.10;67.90;;;;;;5041220;28;20025;-70
2022/06/07 11:20:00;;;;;;;2.97;0.90;;;24.30;67.20;;;;;;5054658;28;20021;-70
2022/06/07 11:22:37;;;;;;;3.05;0.90;;;23.70;67.40;;;;;;5053294;28;20066;-70
2022/06/07 11:25:24;;;;;;;2.17;0.95;;;23.30;68.90;;;;;;5047094;28;20017;-70
2022/06/07 11:27:56;;;;;;;1.65;0.80;;;22.80;69.20;;;;;;5046041;28;20029;-70
2022/06/07 11:30:24;;;;;;;3.90;1.50;;;22.80;69.40;;;;;;5053622;28;20029;-70
2022/06/07 11:32:59;;;;;;;4.28;1.23;;;22.90;69.90;;;;;;5052166;28;20124;-69
2022/06/07 11:35:45;;;;;;;2.08;0.88;;;22.90;70.20;;;;;;5052555;28;20329;-70
2022/06/07 11:38:32;;;;;;;3.95;1.20;;;23.50;69.10;;;;;;5052093;28;20082;-69
2022/06/07 11:44:36;;;;;;;2.35;0.90;;;23.50;69.30;;;;;;5052975;28;20025;-69
2022/06/07 11:47:11;;;;;;;3.72;0.95;;;23.00;69.40;;;;;;5057900;28;20020;-69
2022/06/07 11:49:42;;;;;;;1.75;0.90;;;22.90;70.20;;;;;;5057189;28;20025;-69
2022/06/07 11:52:13;;;;;;;1.88;0.93;;;23.70;69.80;;;;;;5053032;28;20037;-69
2022/06/07 11:54:42;;;;;;;2.55;0.90;;;23.60;69.10;;;;;;5055230;28;20040;-68
2022/06/07 11:57:20;;;;;;;1.27;0.80;;;23.30;69.90;;;;;;5058731;28;20059;-71
2022/06/07 11:59:50;;;;;;;3.15;1.20;;;23.60;68.30;;;;;;5055497;28;20088;-70
2022/06/07 12:02:16;;;;;;;2.45;1.00;;;23.10;68.30;;;;;;5056974;28;20102;-70
2022/06/07 12:04:43;;;;;;;2.65;1.27;;;22.70;69.50;;;;;;5057361;28;20367;-70
2022/06/07 12:07:39;;;;;;;1.90;0.80;;;22.80;69.70;;;;;;5055922;28;20087;-70
2022/06/07 12:10:25;;;;;;;1.48;0.80;;;23.10;68.20;;;;;;5059288;28;20409;-70
2022/06/07 12:13:00;;;;;;;1.90;0.80;;;23.60;69.20;;;;;;5057380;28;20029;-70
2022/06/07 12:15:40;;;;;;;1.70;0.88;;;23.40;69.10;;;;;;5058030;28;20028;-69
2022/06/07 12:18:17;;;;;;;3.33;1.00;;;23.70;67.60;;;;;;5058280;28;20406;-70
2022/06/07 12:20:51;;;;;;;1.73;0.70;;;24.20;66.40;;;;;;5059145;28;20072;-70
2022/06/07 12:23:25;;;;;;;1.63;0.80;;;24.10;67.10;;;;;;5056665;28;20051;-71
2022/06/07 12:26:00;;;;;;;1.98;0.85;;;24.00;67.10;;;;;;5059046;28;20425;-70
2022/06/07 12:28:29;;;;;;;3.05;0.90;;;24.50;66.90;;;;;;5055087;28;20111;-70
2022/06/07 12:30:55;;;;;;;1.95;0.80;;;25.00;65.60;;;;;;5058197;28;20359;-69
2022/06/07 12:33:34;;;;;;;2.58;0.90;;;24.70;65.20;;;;;;5058872;28;20104;-70
2022/06/07 12:36:13;;;;;;;2.08;0.77;;;24.60;67.10;;;;;;5057807;28;20025;-69
2022/06/07 12:38:45;;;;;;;2.75;0.80;;;24.00;66.30;;;;;;5039086;28;20025;-69
2022/06/07 12:41:17;;;;;;;1.40;0.70;;;24.30;66.80;;;;;;5038480;28;20077;-69
2022/06/07 12:43:51;;;;;;;1.80;0.70;;;24.20;65.20;;;;;;5044350;28;20078;-69
2022/06/07 12:46:21;;;;;;;2.88;0.90;;;24.50;66.50;;;;;;5055153;28;20032;-70
2022/06/07 12:48:47;;;;;;;1.55;0.90;;;24.90;65.20;;;;;;5057107;28;20158;-70
2022/06/07 12:51:37;;;;;;;0.98;0.65;;;24.80;64.90;;;;;;5057183;28;20420;-70
2022/06/07 12:54:06;;;;;;;1.23;0.60;;;25.10;64.20;;;;;;5055492;28;20021;-69
2022/06/07 12:56:35;;;;;;;1.00;0.60;;;26.50;64.40;;;;;;5053866;28;20029;-70
2022/06/07 12:59:07;;;;;;;1.83;0.60;;;27.80;59.90;;;;;;5053781;28;20029;-70
2022/06/07 13:01:41;;;;;;;0.88;0.43;;;27.20;59.70;;;;;;5056334;28;20021;-69
2022/06/07 13:04:20;;;;;;;1.45;0.50;;;26.50;62.10;;;;;;5048653;28;20021;-69
2022/06/07 13:07:23;;;;;;;1.92;0.60;;;26.20;61.60;;;;;;5055514;28;20036;-69
2022/06/07 13:09:56;;;;;;;2.05;0.80;;;25.10;62.80;;;;;;5044860;28;20115;-69
2022/06/07 13:12:33;;;;;;;1.38;0.50;;;25.20;64.40;;;;;;5056307;28;20832;-70
2022/06/07 13:15:00;;;;;;;2.08;0.70;;;26.10;62.40;;;;;;5052469;28;20029;-70
2022/06/07 13:17:39;;;;;;;3.15;0.65;;;26.20;61.50;;;;;;5055919;28;20056;-70
2022/06/07 13:20:14;;;;;;;0.82;0.47;;;27.10;62.50;;;;;;5056042;28;20017;-70
2022/06/07 13:22:45;;;;;;;1.00;0.60;;;28.30;59.30;;;;;;5054108;28;20049;-70
2022/06/07 13:25:29;;;;;;;0.75;0.57;;;27.10;60.60;;;;;;5053902;28;20051;-70
2022/06/07 13:28:15;;;;;;;2.10;0.80;;;26.80;59.80;;;;;;5056796;28;20552;-70
2022/06/07 13:30:45;;;;;;;1.30;0.60;;;26.30;61.50;;;;;;5055421;28;20028;-70
2022/06/07 13:33:16;;;;;;;1.63;0.70;;;25.40;63.50;;;;;;5056785;28;20024;-69
2022/06/07 13:35:45;;;;;;;1.52;0.70;;;25.80;63.50;;;;;;5055693;28;20033;-70